Inglenook, California
Current Conditions -  °F | °C
As of 11:56 AM on Thursday 29 Jan 2015 (Local Time) from KUKI Reporting Station
Clear Clear  
Wind Chill: 60°   Ceiling: Unl
Heat Index: 60°   Visibility: 10mi
Dew Point: 39°   Wind: 3mph
Humidity: 46%   Direction: 330°NNW
Pressure: 30.15"   Gusts: NA
Location:  39.4588°N, 123.715°W
Report Text: KUKI 291956Z AUTO 33003KT 10SM CLR 16/04 A3015 RMK AO2 SLP205 T01560039
Loading
Personal Weather Stations






























Interactive Weather Map New forecast layout! Learn more

10-Day Weather Forecast

Advertisements
Track Severe Weather on mobile